ドゥシャンベ の空港の天気 - METARとTAF

ドゥシャンベ空港 ( UTDD / DYU ) - タジキスタン ドゥシャンベ
飛行場実況気象(Metar)
観測時間01/29 12:30 TJT (01/29 07:30 UTC)
風向・風速不定 1m/s
視程10km以上
天気現象
少しの雲 雲底高度 1830m
全天の4割程度の雲 雲底高度 1830m
気温9℃
湿度62%
気圧1026hPa
METARUTDD 290730Z VRB01MPS 9999 FEW060CB SCT060 09/02 Q1026 R09/29//50 NOSIG RMK QFE701/0934
過去の天気等 Google飛行場航空写真 Wunderground天気予報

過去48時間のMETAR

飛行場予報(TAF)
発表時間: 1/29 11:00 TJT (1/29 06:00 UTC)
予報対象時間: 29日12時 TJT ~ 30日0時 TJT
風向・風速不定 2m/s
視程7000m
全天の4割程度の雲 雲底高度 340m
全天の8割程度の積乱雲 雲底高度 610m
29日12時 TJT ~ 29日17時 TJT に一時的に
風向・風速西 5m/s
視程3100m
天気現象弱いしゅう雨 もや
全天の4割程度の積乱雲 雲底高度 910m
全天の8割程度の雲 雲底高度 1520m
29日12時 TJT ~ 29日17時 TJT に 確率 40% で一時的に
視程2100m
天気現象弱い雷雨 もや
29日17時 TJT ~ 29日24時 TJT に一時的に
視程3100m
天気現象もや 煙
TAF UTDD 290600Z 2907/2919 VRB02MPS 7000 SCT011 BKN020CB
TEMPO 2907/2912 28005MPS 3100 -SHRA BR SCT030CB BKN050
PROB40 TEMPO 2907/2912 2100 -TSRA BR
TEMPO 2912/2919 3100 BR FU